Time;durP1;ratioP1;P1;durP2;ratioP2;P2;SDS_P1;SDS_P2;PMS_P1;PMS_P2;Temp;Humidity;BMP_temperature;BMP_pressure;BME280_temperature;BME280_humidity;BME280_pressure;Samples;Min_cycle;Max_cycle;Signal;HPM_P1;HPM_P2
2022/12/27 00:00:49;;;;;;;5.70;2.10;;;3.60;99.90;;;;;;5051996;28;20418;-60
2022/12/27 00:03:16;;;;;;;5.50;2.25;;;3.60;99.90;;;;;;5051360;28;20425;-61
2022/12/27 00:05:43;;;;;;;4.93;1.60;;;3.60;99.90;;;;;;5052003;28;20512;-60
2022/12/27 00:08:10;;;;;;;8.55;2.00;;;3.60;99.90;;;;;;5052425;28;20436;-60
2022/12/27 00:10:37;;;;;;;4.25;1.92;;;3.70;99.90;;;;;;5052330;28;20512;-60
2022/12/27 00:13:04;;;;;;;5.85;1.80;;;3.60;99.90;;;;;;5051603;28;20893;-60
2022/12/27 00:15:32;;;;;;;4.00;1.90;;;3.60;99.90;;;;;;5052083;28;20433;-60
2022/12/27 00:18:00;;;;;;;3.95;1.60;;;3.70;99.90;;;;;;5051826;28;20436;-60
2022/12/27 00:20:27;;;;;;;5.87;1.70;;;3.60;99.90;;;;;;5051735;28;20415;-61
2022/12/27 00:22:54;;;;;;;3.53;1.83;;;3.70;99.90;;;;;;5051380;28;20436;-60
2022/12/27 00:25:21;;;;;;;9.13;2.20;;;3.70;99.90;;;;;;5051132;28;20424;-61
2022/12/27 00:27:48;;;;;;;4.55;1.88;;;3.60;99.90;;;;;;5052183;28;20413;-60
2022/12/27 00:30:15;;;;;;;6.67;2.20;;;3.60;99.90;;;;;;5052466;28;20444;-60
2022/12/27 00:32:42;;;;;;;6.00;1.80;;;3.60;99.90;;;;;;5053257;28;20444;-60
2022/12/27 00:35:10;;;;;;;7.10;1.90;;;3.60;99.90;;;;;;5052340;28;20409;-62
2022/12/27 00:37:37;;;;;;;3.28;1.60;;;3.60;99.90;;;;;;5051914;28;20421;-61
2022/12/27 00:40:04;;;;;;;4.47;1.73;;;3.60;99.90;;;;;;5051811;28;20421;-61
2022/12/27 00:42:31;;;;;;;4.15;1.60;;;3.60;99.90;;;;;;5051711;28;20416;-60
2022/12/27 00:44:57;;;;;;;5.00;2.20;;;3.60;99.90;;;;;;5051380;28;20434;-61
2022/12/27 00:47:24;;;;;;;5.88;2.08;;;3.60;99.90;;;;;;5052603;28;20528;-61
2022/12/27 00:49:51;;;;;;;4.53;1.95;;;3.70;99.90;;;;;;5054804;28;20916;-62
2022/12/27 00:52:19;;;;;;;5.05;1.75;;;3.60;99.90;;;;;;5054999;28;20415;-60
2022/12/27 00:54:46;;;;;;;4.20;1.90;;;3.70;99.90;;;;;;5055312;28;20405;-60
2022/12/27 00:57:12;;;;;;;6.72;2.10;;;3.70;99.90;;;;;;5054514;28;20901;-60
2022/12/27 00:59:39;;;;;;;8.10;2.50;;;3.80;99.90;;;;;;5056323;28;20496;-60
2022/12/27 01:02:06;;;;;;;6.68;2.70;;;3.90;99.90;;;;;;5055260;28;20416;-61
2022/12/27 01:04:33;;;;;;;5.23;2.30;;;3.90;99.90;;;;;;5054652;28;20955;-60
2022/12/27 01:07:00;;;;;;;4.53;2.53;;;4.00;99.90;;;;;;5054722;28;20416;-60
2022/12/27 01:09:29;;;;;;;8.25;2.50;;;3.90;99.90;;;;;;5055085;28;20462;-61
2022/12/27 01:11:55;;;;;;;8.93;2.80;;;3.90;99.90;;;;;;5054543;28;20424;-61
2022/12/27 01:14:22;;;;;;;4.47;2.60;;;3.90;99.90;;;;;;5055429;28;20424;-60
2022/12/27 01:16:49;;;;;;;6.93;2.42;;;3.90;99.90;;;;;;5054743;28;20420;-60
2022/12/27 01:19:16;;;;;;;8.25;3.05;;;3.80;99.90;;;;;;5054798;28;20870;-60
2022/12/27 01:21:43;;;;;;;7.05;3.20;;;3.80;99.90;;;;;;5054339;28;20413;-62
2022/12/27 01:24:10;;;;;;;5.75;2.80;;;3.80;99.90;;;;;;5054357;28;20430;-61
2022/12/27 01:26:38;;;;;;;7.68;2.97;;;3.80;99.90;;;;;;5054458;28;20417;-60
2022/12/27 01:29:05;;;;;;;6.57;3.10;;;3.70;99.90;;;;;;5054523;28;20455;-60
2022/12/27 01:31:31;;;;;;;6.45;3.40;;;3.80;99.90;;;;;;5054360;28;20417;-60
2022/12/27 01:34:00;;;;;;;8.15;3.08;;;3.80;99.90;;;;;;5054164;28;20472;-60
2022/12/27 01:36:28;;;;;;;6.82;3.10;;;3.80;99.90;;;;;;5054700;28;20409;-62
2022/12/27 01:38:55;;;;;;;5.97;2.97;;;3.70;99.90;;;;;;5054445;28;20908;-60
2022/12/27 01:44:49;;;;;;;7.35;3.22;;;3.70;99.90;;;;;;5054453;28;20420;-60
2022/12/27 01:47:25;;;;;;;8.40;4.10;;;3.70;99.90;;;;;;5047210;28;20432;-60
2022/12/27 01:49:59;;;;;;;5.72;3.30;;;3.70;99.90;;;;;;5053637;28;20798;-59
2022/12/27 01:52:30;;;;;;;8.32;4.00;;;3.60;99.90;;;;;;5055081;28;20509;-60
2022/12/27 01:55:05;;;;;;;8.25;3.47;;;3.70;99.90;;;;;;5054384;28;20905;-61
2022/12/27 01:57:32;;;;;;;9.18;3.47;;;3.60;99.90;;;;;;5055015;28;20420;-60
2022/12/27 01:59:59;;;;;;;8.60;3.83;;;3.60;99.90;;;;;;5054083;28;20424;-60
2022/12/27 02:02:27;;;;;;;4.88;3.03;;;3.60;99.90;;;;;;5053853;28;20416;-60
2022/12/27 02:04:54;;;;;;;8.57;4.15;;;3.60;99.90;;;;;;5053954;28;20438;-60
2022/12/27 02:07:25;;;;;;;5.88;3.10;;;3.60;99.90;;;;;;5053696;28;20466;-59
2022/12/27 02:09:57;;;;;;;7.00;3.58;;;3.70;99.90;;;;;;5053985;28;20417;-60
2022/12/27 02:12:25;;;;;;;7.05;3.65;;;3.70;99.90;;;;;;5053214;28;20489;-60
2022/12/27 02:14:52;;;;;;;6.22;3.47;;;3.80;99.90;;;;;;5053563;28;20420;-60
2022/12/27 02:17:25;;;;;;;10.30;3.55;;;3.80;99.90;;;;;;5053251;28;20417;-60
2022/12/27 02:20:00;;;;;;;6.13;3.03;;;3.90;99.90;;;;;;5053632;28;20410;-60
2022/12/27 02:26:13;;;;;;;8.18;3.65;;;4.00;99.90;;;;;;5029525;28;20410;-59
2022/12/27 02:29:02;;;;;;;7.90;3.90;;;3.90;99.90;;;;;;5053264;28;20830;-60
2022/12/27 02:31:35;;;;;;;6.05;3.50;;;3.90;99.90;;;;;;5053428;28;20773;-60
2022/12/27 02:34:08;;;;;;;8.27;3.40;;;3.90;99.90;;;;;;5052599;28;20794;-60
2022/12/27 02:36:36;;;;;;;7.63;3.37;;;3.90;99.90;;;;;;5052980;28;20413;-60
2022/12/27 02:39:05;;;;;;;6.38;3.20;;;3.90;99.90;;;;;;5052885;28;20416;-61
2022/12/27 02:53:06;;;;;;;8.80;3.25;;;3.90;99.90;;;;;;5052539;28;20424;-60
2022/12/27 02:58:55;;;;;;;7.78;3.58;;;3.90;99.90;;;;;;5052785;28;20408;-61
2022/12/27 03:04:28;;;;;;;8.50;3.90;;;3.90;99.90;;;;;;5052436;28;20923;-60
2022/12/27 03:07:18;;;;;;;5.05;3.60;;;3.90;99.90;;;;;;5054185;28;20908;-60
2022/12/27 03:15:58;;;;;;;6.17;3.70;;;3.80;99.90;;;;;;5056033;28;20570;-59
2022/12/27 03:19:08;;;;;;;7.00;3.60;;;3.90;99.90;;;;;;5055519;28;20864;-60
2022/12/27 03:27:17;;;;;;;7.68;3.65;;;3.80;99.90;;;;;;5052328;28;20738;-60
2022/12/27 03:35:33;;;;;;;5.00;3.35;;;3.80;99.90;;;;;;5050920;28;20758;-61
2022/12/27 03:38:02;;;;;;;9.68;3.95;;;3.80;99.90;;;;;;5052457;28;20419;-61
2022/12/27 03:43:27;;;;;;;8.13;3.83;;;3.90;99.90;;;;;;5050231;28;20396;-61
2022/12/27 03:49:05;;;;;;;9.43;4.40;;;3.90;99.90;;;;;;5051527;28;20446;-59
2022/12/27 03:51:37;;;;;;;9.93;4.20;;;3.90;99.90;;;;;;5052710;28;20416;-59
2022/12/27 03:54:10;;;;;;;9.43;4.75;;;4.00;99.90;;;;;;5051703;28;20417;-61
2022/12/27 03:56:38;;;;;;;9.27;4.10;;;4.00;99.90;;;;;;5051691;28;20419;-60
2022/12/27 03:59:06;;;;;;;7.68;3.58;;;4.00;99.90;;;;;;5051392;28;20886;-60
2022/12/27 04:01:32;;;;;;;7.13;3.90;;;4.00;99.90;;;;;;5051465;28;20928;-60
2022/12/27 04:03:59;;;;;;;7.10;4.33;;;4.00;99.90;;;;;;5051529;28;20474;-60
2022/12/27 04:06:26;;;;;;;8.13;4.30;;;4.00;99.90;;;;;;5051632;28;20428;-60
2022/12/27 04:35:29;;;;;;;8.82;4.82;;;4.10;99.90;;;;;;5049406;28;20479;-62
2022/12/27 04:37:56;;;;;;;9.50;5.10;;;4.10;99.90;;;;;;5049372;28;20418;-61
2022/12/27 04:56:59;;;;;;;9.57;4.90;;;4.50;99.90;;;;;;5049006;28;20417;-62
2022/12/27 05:02:12;;;;;;;9.95;5.53;;;4.50;99.90;;;;;;5048890;28;20416;-62
2022/12/27 05:04:39;;;;;;;7.15;5.05;;;4.60;99.90;;;;;;5049570;28;20539;-62
2022/12/27 05:15:19;;;;;;;9.75;5.68;;;4.70;99.90;;;;;;5048921;28;20490;-62
2022/12/27 05:17:46;;;;;;;6.07;5.13;;;4.70;99.90;;;;;;5048989;28;20538;-62
2022/12/27 05:20:13;;;;;;;8.18;5.28;;;4.70;99.90;;;;;;5046723;28;20412;-62
2022/12/27 05:25:37;;;;;;;9.73;5.75;;;4.70;99.90;;;;;;5035638;28;20453;-62
2022/12/27 05:28:05;;;;;;;10.25;6.10;;;4.70;99.90;;;;;;5035496;28;20422;-62
2022/12/27 05:30:34;;;;;;;8.90;6.05;;;4.70;99.90;;;;;;5035655;28;20525;-61
2022/12/27 05:33:01;;;;;;;8.88;6.20;;;4.70;99.90;;;;;;5034894;28;20441;-63
2022/12/27 05:35:28;;;;;;;7.15;6.40;;;4.70;99.90;;;;;;5035893;28;20449;-63
2022/12/27 05:37:55;;;;;;;11.10;6.93;;;4.70;99.90;;;;;;5037571;28;20513;-63
2022/12/27 05:40:22;;;;;;;7.97;5.88;;;4.80;99.90;;;;;;5038007;28;20407;-62
2022/12/27 05:42:48;;;;;;;11.40;5.83;;;4.80;99.90;;;;;;5035165;28;20495;-63
2022/12/27 05:45:15;;;;;;;8.52;5.90;;;4.80;99.90;;;;;;5034889;28;20411;-63
2022/12/27 05:47:44;;;;;;;7.57;6.10;;;4.90;99.90;;;;;;5035221;28;20419;-63
2022/12/27 05:50:11;;;;;;;11.23;6.35;;;4.90;99.90;;;;;;5035607;28;20430;-62
2022/12/27 05:52:38;;;;;;;11.77;6.13;;;4.90;99.90;;;;;;5035288;28;20446;-63
2022/12/27 05:55:06;;;;;;;9.93;5.90;;;5.00;99.90;;;;;;5035536;28;20411;-62
2022/12/27 05:57:33;;;;;;;9.23;6.20;;;4.90;99.90;;;;;;5035764;28;20415;-62
2022/12/27 06:00:00;;;;;;;9.88;6.18;;;4.90;99.90;;;;;;5035150;28;20816;-62
2022/12/27 06:02:27;;;;;;;7.97;6.22;;;4.90;99.90;;;;;;5034885;28;20890;-62
2022/12/27 06:04:55;;;;;;;7.95;6.25;;;4.80;99.90;;;;;;5034990;28;20841;-62
2022/12/27 06:07:22;;;;;;;8.95;6.18;;;4.80;99.90;;;;;;5035078;28;20415;-62
2022/12/27 06:09:49;;;;;;;9.30;6.80;;;4.70;99.90;;;;;;5034971;28;20429;-62
2022/12/27 06:12:16;;;;;;;11.57;6.63;;;4.70;99.90;;;;;;5035224;28;20417;-61
2022/12/27 06:14:42;;;;;;;8.38;6.60;;;4.70;99.90;;;;;;5034958;28;20423;-61
2022/12/27 06:17:09;;;;;;;9.15;6.55;;;4.80;99.90;;;;;;5034282;28;20423;-61
2022/12/27 06:19:36;;;;;;;11.02;6.30;;;4.80;99.90;;;;;;5034352;28;20411;-62
2022/12/27 06:22:04;;;;;;;9.90;6.60;;;4.80;99.90;;;;;;5034386;28;20415;-61
2022/12/27 06:24:31;;;;;;;9.43;6.40;;;4.80;99.90;;;;;;5033766;28;20450;-62
2022/12/27 06:26:57;;;;;;;11.25;6.20;;;4.80;99.90;;;;;;5034024;28;20422;-61
2022/12/27 06:29:24;;;;;;;10.50;6.60;;;4.80;99.90;;;;;;5034161;28;20434;-63
2022/12/27 06:31:51;;;;;;;8.77;6.50;;;4.80;99.90;;;;;;5033326;28;20884;-62
2022/12/27 06:34:18;;;;;;;7.55;6.15;;;4.90;99.90;;;;;;5033725;28;20415;-62
2022/12/27 06:36:49;;;;;;;11.38;6.47;;;4.90;99.90;;;;;;5034098;28;20415;-63
2022/12/27 06:39:18;;;;;;;9.40;6.13;;;4.90;99.90;;;;;;5034100;28;20442;-62
2022/12/27 06:41:45;;;;;;;10.00;6.47;;;4.90;99.90;;;;;;5034084;28;20415;-62
2022/12/27 06:44:11;;;;;;;8.60;6.50;;;4.90;99.90;;;;;;5031556;28;20457;-62
2022/12/27 06:46:38;;;;;;;11.90;6.00;;;4.90;99.90;;;;;;5033306;28;20925;-62
2022/12/27 06:49:05;;;;;;;8.63;6.13;;;4.90;99.90;;;;;;5028090;28;20973;-62
2022/12/27 06:51:33;;;;;;;10.30;6.18;;;4.80;99.90;;;;;;5033803;28;20779;-62
2022/12/27 06:54:00;;;;;;;9.57;6.18;;;4.80;99.90;;;;;;5033705;28;20414;-62
2022/12/27 06:56:28;;;;;;;11.60;5.82;;;4.80;99.90;;;;;;5033508;28;20787;-62
2022/12/27 06:58:55;;;;;;;11.53;6.77;;;4.80;99.90;;;;;;5031461;28;20499;-63
2022/12/27 07:01:23;;;;;;;10.23;6.15;;;4.70;99.90;;;;;;5033224;28;20415;-62
2022/12/27 07:03:51;;;;;;;7.00;5.70;;;4.80;99.90;;;;;;5033149;28;20799;-63
2022/12/27 07:06:19;;;;;;;9.18;6.32;;;4.80;99.90;;;;;;5022816;28;20435;-62
2022/12/27 07:08:46;;;;;;;10.18;5.57;;;4.70;99.90;;;;;;5028078;28;20459;-63
2022/12/27 07:11:15;;;;;;;7.38;5.45;;;4.80;99.90;;;;;;5032580;28;20919;-62
2022/12/27 07:13:45;;;;;;;7.10;5.97;;;4.70;99.90;;;;;;5029866;28;20456;-63
2022/12/27 07:16:14;;;;;;;7.30;5.97;;;4.80;99.90;;;;;;5032131;28;20521;-62
2022/12/27 07:18:42;;;;;;;10.40;6.45;;;4.70;99.90;;;;;;5046145;28;20576;-62
2022/12/27 07:21:11;;;;;;;7.75;5.82;;;4.70;99.90;;;;;;5053311;28;20417;-62
2022/12/27 07:23:38;;;;;;;7.53;5.55;;;4.80;99.90;;;;;;5039132;28;20438;-62
2022/12/27 07:26:06;;;;;;;7.28;5.75;;;4.80;99.90;;;;;;5032867;28;20415;-62
2022/12/27 07:28:33;;;;;;;6.93;5.40;;;4.90;99.90;;;;;;5032802;28;20422;-62
2022/12/27 07:31:07;;;;;;;9.10;5.77;;;4.90;99.90;;;;;;5032500;28;20433;-63
2022/12/27 07:33:35;;;;;;;8.48;5.45;;;4.90;99.90;;;;;;5032698;28;20427;-63
2022/12/27 07:36:03;;;;;;;7.28;5.30;;;4.90;99.90;;;;;;5031842;28;20431;-62
2022/12/27 07:38:29;;;;;;;7.80;5.00;;;4.90;99.90;;;;;;5032301;28;20937;-62
2022/12/27 07:40:59;;;;;;;9.13;5.40;;;4.90;99.90;;;;;;5032752;28;20415;-62
2022/12/27 07:43:26;;;;;;;7.63;4.90;;;4.90;99.90;;;;;;5032948;28;20419;-61
2022/12/27 07:45:52;;;;;;;7.47;4.70;;;5.00;99.90;;;;;;5032807;28;20415;-65
2022/12/27 07:48:21;;;;;;;11.10;5.27;;;4.90;99.90;;;;;;5030500;28;20431;-62
2022/12/27 07:50:54;;;;;;;6.40;4.50;;;4.90;99.90;;;;;;5031737;28;20435;-62
2022/12/27 07:53:21;;;;;;;9.30;4.80;;;4.80;99.90;;;;;;5032496;28;20423;-64
2022/12/27 07:55:49;;;;;;;9.35;5.00;;;4.80;99.90;;;;;;5031822;28;20961;-61
2022/12/27 07:58:17;;;;;;;8.80;4.88;;;4.80;99.90;;;;;;5031305;28;20823;-65
2022/12/27 08:00:45;;;;;;;8.27;5.05;;;4.80;99.90;;;;;;5031453;28;20430;-60
2022/12/27 08:03:12;;;;;;;7.50;4.72;;;4.80;99.90;;;;;;5031395;28;20480;-61
2022/12/27 08:05:45;;;;;;;11.23;5.30;;;4.80;99.90;;;;;;5031078;28;20810;-62
2022/12/27 08:08:14;;;;;;;9.45;5.32;;;4.80;99.90;;;;;;5031482;28;20458;-62
2022/12/27 08:10:41;;;;;;;10.88;5.10;;;4.80;99.90;;;;;;5031906;28;20445;-62
2022/12/27 08:13:08;;;;;;;8.90;4.90;;;4.80;99.90;;;;;;5032499;28;20419;-61
2022/12/27 08:15:35;;;;;;;8.13;5.20;;;4.80;99.90;;;;;;5031284;28;20435;-62
2022/12/27 08:18:01;;;;;;;9.73;5.57;;;4.80;99.90;;;;;;5051645;28;20901;-62
2022/12/27 08:20:28;;;;;;;10.48;5.35;;;4.80;99.90;;;;;;5051623;28;20413;-62
2022/12/27 08:22:56;;;;;;;8.70;5.70;;;4.80;99.90;;;;;;5043885;28;20430;-63
2022/12/27 08:25:23;;;;;;;9.18;5.97;;;4.70;99.90;;;;;;5032009;28;20419;-63
2022/12/27 08:27:50;;;;;;;6.65;5.13;;;4.80;99.90;;;;;;5029668;28;20941;-62
2022/12/27 08:30:17;;;;;;;11.43;5.53;;;4.80;99.90;;;;;;5031669;28;20803;-62
2022/12/27 08:32:43;;;;;;;9.77;5.78;;;4.70;99.90;;;;;;5031790;28;20898;-62
2022/12/27 08:35:10;;;;;;;11.85;5.68;;;4.80;99.90;;;;;;5031860;28;20411;-62
2022/12/27 08:37:37;;;;;;;10.15;5.63;;;4.80;99.90;;;;;;5031907;28;20415;-63
2022/12/27 08:40:06;;;;;;;9.52;4.93;;;4.80;99.90;;;;;;5031599;28;20902;-63
2022/12/27 08:42:33;;;;;;;11.25;5.97;;;4.70;99.90;;;;;;5031972;28;20422;-62
2022/12/27 08:45:00;;;;;;;8.30;5.40;;;4.70;99.90;;;;;;5031704;28;20473;-62
2022/12/27 08:47:26;;;;;;;7.47;5.40;;;4.70;99.90;;;;;;5032163;28;20422;-63
2022/12/27 08:49:53;;;;;;;10.48;5.47;;;4.80;99.90;;;;;;5031473;28;20780;-62
2022/12/27 08:52:20;;;;;;;8.50;5.32;;;4.80;99.90;;;;;;5031794;28;20415;-62
2022/12/27 08:54:47;;;;;;;8.52;5.13;;;4.80;99.90;;;;;;5031725;28;20488;-62
2022/12/27 08:57:15;;;;;;;10.32;5.10;;;4.80;99.90;;;;;;5034901;28;20418;-62
2022/12/27 08:59:41;;;;;;;7.70;5.07;;;4.80;99.90;;;;;;5035159;28;20896;-62
2022/12/27 09:02:09;;;;;;;10.07;5.15;;;4.90;99.90;;;;;;5035583;28;20522;-63
2022/12/27 09:04:36;;;;;;;10.52;4.97;;;4.90;99.90;;;;;;5035394;28;20768;-62
2022/12/27 09:07:03;;;;;;;8.20;5.10;;;4.90;99.90;;;;;;5035284;28;20498;-63
2022/12/27 09:09:30;;;;;;;7.55;4.50;;;5.00;99.90;;;;;;5035338;28;20414;-62
2022/12/27 09:11:57;;;;;;;7.35;5.18;;;5.00;99.90;;;;;;5035148;28;20957;-63
2022/12/27 09:14:25;;;;;;;7.18;4.82;;;5.10;99.90;;;;;;5035922;28;20466;-63
2022/12/27 09:16:52;;;;;;;8.85;5.43;;;5.20;99.90;;;;;;5035380;28;20423;-63
2022/12/27 09:19:19;;;;;;;9.00;4.70;;;5.30;99.90;;;;;;5035659;28;20415;-64
2022/12/27 09:21:46;;;;;;;7.85;4.50;;;5.30;99.90;;;;;;5035264;28;20410;-63
2022/12/27 09:24:14;;;;;;;11.32;5.22;;;5.40;99.90;;;;;;5035444;28;20887;-63
2022/12/27 09:26:41;;;;;;;8.67;4.80;;;5.40;99.90;;;;;;5035890;28;20469;-64
2022/12/27 09:29:08;;;;;;;10.80;4.57;;;5.50;99.90;;;;;;5035812;28;20415;-63
2022/12/27 09:31:36;;;;;;;7.63;4.75;;;5.50;99.90;;;;;;5035263;28;20431;-62
2022/12/27 09:34:03;;;;;;;10.73;5.10;;;5.50;99.90;;;;;;5034566;28;20490;-63
2022/12/27 09:36:30;;;;;;;8.88;5.30;;;5.50;99.90;;;;;;5035018;28;20411;-63
2022/12/27 09:38:58;;;;;;;8.75;4.47;;;5.50;99.90;;;;;;5035880;28;20410;-64
2022/12/27 09:41:45;;;;;;;11.13;4.70;;;5.60;99.90;;;;;;5035547;28;20418;-63
2022/12/27 09:44:15;;;;;;;9.35;5.10;;;5.70;99.90;;;;;;5035572;28;20498;-63
2022/12/27 09:46:50;;;;;;;7.93;4.65;;;5.70;99.90;;;;;;5035662;28;20429;-64
2022/12/27 09:49:26;;;;;;;8.25;4.60;;;5.90;99.90;;;;;;5035316;28;20431;-63
2022/12/27 09:51:58;;;;;;;8.00;4.50;;;6.00;99.90;;;;;;5034878;28;20826;-64
2022/12/27 09:54:28;;;;;;;8.60;4.80;;;6.20;99.90;;;;;;5035072;28;20477;-63
2022/12/27 09:56:58;;;;;;;6.35;4.40;;;6.30;99.90;;;;;;5035559;28;20399;-64
2022/12/27 09:59:30;;;;;;;9.15;4.40;;;6.40;99.90;;;;;;5035483;28;20465;-63
2022/12/27 10:01:59;;;;;;;8.13;4.20;;;6.50;99.90;;;;;;5035931;28;20415;-64
2022/12/27 10:04:26;;;;;;;9.35;4.78;;;6.50;99.90;;;;;;5034734;28;20437;-64
2022/12/27 10:07:06;;;;;;;9.98;4.95;;;6.50;99.90;;;;;;5035149;28;20437;-63
2022/12/27 10:09:49;;;;;;;8.60;4.43;;;6.50;99.90;;;;;;5035256;28;20493;-64
2022/12/27 10:12:27;;;;;;;9.90;4.10;;;6.40;99.90;;;;;;5035395;28;20431;-64
2022/12/27 10:15:03;;;;;;;8.23;4.15;;;6.40;99.90;;;;;;5035726;28;20431;-64
2022/12/27 10:17:44;;;;;;;8.40;4.50;;;6.40;99.90;;;;;;5035631;28;20423;-63
2022/12/27 10:20:21;;;;;;;6.93;4.50;;;6.40;99.90;;;;;;5035273;28;20505;-65
2022/12/27 10:22:52;;;;;;;11.73;4.00;;;6.30;99.90;;;;;;5034971;28;20492;-64
2022/12/27 10:25:21;;;;;;;9.68;4.40;;;6.30;99.90;;;;;;5058388;23;20435;-62
2022/12/27 10:27:48;;;;;;;8.73;4.25;;;6.40;99.90;;;;;;5034483;28;20418;-62
2022/12/27 10:30:18;;;;;;;6.90;4.10;;;6.40;99.90;;;;;;5035346;28;20435;-63
2022/12/27 10:32:47;;;;;;;8.38;4.60;;;6.40;99.90;;;;;;5034829;28;20533;-62
2022/12/27 10:35:16;;;;;;;5.97;3.90;;;6.40;99.90;;;;;;5034468;28;20422;-62
2022/12/27 10:37:43;;;;;;;7.05;4.18;;;6.40;99.90;;;;;;5034396;28;20426;-63
2022/12/27 10:40:16;;;;;;;8.45;4.60;;;6.40;99.90;;;;;;5035194;28;20407;-63
2022/12/27 10:42:48;;;;;;;9.70;4.28;;;6.30;99.90;;;;;;5034583;28;20625;-63
2022/12/27 10:45:31;;;;;;;7.87;4.10;;;6.20;99.90;;;;;;5034622;28;20493;-63
2022/12/27 10:48:13;;;;;;;7.65;4.63;;;6.10;99.90;;;;;;5034189;28;20889;-62
2022/12/27 10:50:46;;;;;;;7.22;3.42;;;5.90;99.90;;;;;;5034138;28;20431;-62
2022/12/27 10:53:29;;;;;;;5.88;3.20;;;5.70;99.90;;;;;;5034259;28;20423;-63
2022/12/27 10:56:07;;;;;;;5.90;2.90;;;5.50;99.90;;;;;;5034351;28;20427;-63
2022/12/27 10:58:38;;;;;;;5.60;3.80;;;5.40;99.90;;;;;;5034632;28;20444;-62
2022/12/27 11:01:06;;;;;;;7.00;3.50;;;5.30;99.90;;;;;;5033655;28;20470;-63
2022/12/27 11:03:34;;;;;;;6.63;3.88;;;5.20;99.90;;;;;;5033646;28;20419;-62
2022/12/27 11:06:02;;;;;;;6.60;3.85;;;5.20;99.90;;;;;;5034882;28;20415;-63
2022/12/27 11:08:30;;;;;;;5.45;4.40;;;5.20;99.90;;;;;;5034459;28;20423;-61
2022/12/27 11:11:13;;;;;;;5.68;4.22;;;5.20;99.90;;;;;;5033525;28;20426;-62
2022/12/27 11:13:40;;;;;;;9.93;4.90;;;5.40;99.90;;;;;;5033088;28;20415;-62
2022/12/27 11:16:15;;;;;;;10.85;5.30;;;5.60;99.90;;;;;;5033890;28;20425;-62
2022/12/27 11:18:48;;;;;;;8.23;5.63;;;5.80;99.90;;;;;;5033202;28;20922;-61
2022/12/27 11:21:17;;;;;;;7.75;4.45;;;6.00;99.90;;;;;;5033548;28;20405;-62
2022/12/27 11:23:48;;;;;;;10.52;4.95;;;6.00;99.90;;;;;;5033795;28;20795;-63
2022/12/27 11:26:21;;;;;;;8.75;5.30;;;6.00;99.90;;;;;;5033681;28;20771;-62
2022/12/27 11:28:51;;;;;;;7.80;4.50;;;6.00;99.90;;;;;;5033810;28;20419;-63
2022/12/27 11:31:27;;;;;;;8.75;5.13;;;6.00;99.90;;;;;;5034382;28;20600;-63
2022/12/27 11:33:56;;;;;;;6.93;4.45;;;6.00;99.90;;;;;;5033934;28;20415;-61
2022/12/27 11:36:27;;;;;;;10.10;5.05;;;6.10;99.90;;;;;;5035600;28;20426;-62
2022/12/27 11:38:54;;;;;;;7.93;4.80;;;6.10;99.90;;;;;;5034704;28;20422;-61
2022/12/27 11:41:29;;;;;;;9.13;4.90;;;6.20;99.90;;;;;;5033171;28;20775;-63
2022/12/27 11:44:01;;;;;;;8.55;4.32;;;6.20;99.90;;;;;;5033004;28;20415;-63
2022/12/27 11:46:30;;;;;;;7.45;4.57;;;6.10;99.90;;;;;;5033591;28;20747;-62
2022/12/27 11:48:59;;;;;;;7.90;4.00;;;6.20;99.90;;;;;;5033599;28;20411;-62
2022/12/27 11:51:50;;;;;;;6.65;4.10;;;6.30;99.90;;;;;;5032850;28;20923;-62
2022/12/27 11:54:39;;;;;;;9.20;4.28;;;6.40;99.90;;;;;;5033195;28;20415;-62
2022/12/27 11:57:15;;;;;;;8.93;4.10;;;6.50;99.90;;;;;;5034024;28;20462;-62
2022/12/27 11:59:59;;;;;;;6.03;3.50;;;6.60;99.90;;;;;;5034542;28;20454;-62
2022/12/27 12:02:41;;;;;;;7.70;3.50;;;6.70;99.90;;;;;;5034626;28;20431;-63
2022/12/27 12:05:50;;;;;;;9.02;3.90;;;6.90;99.90;;;;;;5033414;28;20410;-62
2022/12/27 12:08:50;;;;;;;7.70;3.67;;;7.10;99.90;;;;;;5033984;28;20497;-63
2022/12/27 12:11:30;;;;;;;9.43;3.70;;;7.20;99.90;;;;;;5035269;28;20434;-61
2022/12/27 12:14:21;;;;;;;6.65;3.10;;;7.20;99.90;;;;;;5035693;28;20419;-63
2022/12/27 12:17:13;;;;;;;5.60;3.10;;;7.30;99.90;;;;;;5037270;28;20422;-63
2022/12/27 12:19:59;;;;;;;6.70;3.40;;;7.20;99.90;;;;;;5037603;28;20833;-63
2022/12/27 12:22:43;;;;;;;6.72;3.10;;;7.20;99.90;;;;;;5037504;28;20407;-63
2022/12/27 12:25:43;;;;;;;5.82;2.90;;;7.10;99.90;;;;;;5038927;28;20460;-63
2022/12/27 12:28:33;;;;;;;7.88;3.38;;;7.20;99.90;;;;;;5037017;28;20459;-63
2022/12/27 12:31:13;;;;;;;3.63;2.70;;;7.10;99.90;;;;;;5041120;28;20411;-63
2022/12/27 12:34:02;;;;;;;4.75;3.05;;;7.10;99.90;;;;;;5044879;28;20464;-62
2022/12/27 12:36:42;;;;;;;8.27;3.10;;;7.10;99.90;;;;;;5047298;28;20448;-63
2022/12/27 12:39:19;;;;;;;7.90;3.30;;;7.10;99.90;;;;;;5044249;28;20517;-62
2022/12/27 12:42:09;;;;;;;7.40;3.40;;;7.10;99.90;;;;;;5052370;28;20445;-63
2022/12/27 12:44:57;;;;;;;6.32;3.20;;;7.10;99.90;;;;;;5048461;28;20456;-62
2022/12/27 12:47:43;;;;;;;7.82;3.60;;;7.00;99.90;;;;;;5047456;28;20815;-62
2022/12/27 12:50:26;;;;;;;8.43;3.75;;;7.00;99.90;;;;;;5044528;28;20446;-61
2022/12/27 12:53:18;;;;;;;6.25;3.22;;;7.00;99.90;;;;;;5037046;28;20430;-61
2022/12/27 12:55:57;;;;;;;5.72;3.20;;;6.90;99.90;;;;;;5036932;28;20427;-62
2022/12/27 12:58:45;;;;;;;5.50;3.00;;;6.90;99.90;;;;;;5036625;28;20427;-62
2022/12/27 13:01:33;;;;;;;7.30;3.00;;;6.90;99.90;;;;;;5036536;28;20417;-62
2022/12/27 13:04:30;;;;;;;10.57;3.30;;;6.90;99.90;;;;;;5037467;28;20415;-62
2022/12/27 13:07:22;;;;;;;7.22;3.53;;;6.90;99.90;;;;;;5036489;28;20464;-62
2022/12/27 13:10:05;;;;;;;7.00;3.28;;;6.90;99.90;;;;;;5038500;28;20534;-61
2022/12/27 13:12:41;;;;;;;8.77;3.08;;;6.90;99.90;;;;;;5037277;28;20903;-60
2022/12/27 13:15:24;;;;;;;7.90;3.30;;;6.90;99.90;;;;;;5036188;28;20807;-63
2022/12/27 13:18:02;;;;;;;7.47;3.50;;;6.90;99.90;;;;;;5036496;28;20488;-62
2022/12/27 13:20:53;;;;;;;10.23;3.80;;;6.90;99.90;;;;;;5036233;28;20429;-63
2022/12/27 13:23:38;;;;;;;6.70;3.90;;;6.90;99.90;;;;;;5033004;28;20454;-62
2022/12/27 13:26:14;;;;;;;7.03;4.25;;;6.90;99.90;;;;;;5036688;28;20511;-62
2022/12/27 13:28:50;;;;;;;6.55;3.90;;;6.90;99.90;;;;;;5036745;28;20426;-63
2022/12/27 13:31:30;;;;;;;9.43;4.53;;;6.90;99.90;;;;;;5038190;28;20464;-63
2022/12/27 13:34:13;;;;;;;8.20;5.25;;;6.90;99.90;;;;;;5040898;28;20430;-63
2022/12/27 13:36:51;;;;;;;8.18;4.55;;;6.90;99.90;;;;;;5043189;28;20820;-62
2022/12/27 13:39:37;;;;;;;8.10;4.05;;;6.90;99.90;;;;;;5042367;28;20525;-62
2022/12/27 13:42:36;;;;;;;7.57;4.38;;;6.90;99.90;;;;;;5040336;28;20411;-63
2022/12/27 13:45:17;;;;;;;9.02;4.00;;;6.90;99.90;;;;;;5040755;28;20565;-63
2022/12/27 13:47:58;;;;;;;5.88;3.90;;;6.90;99.90;;;;;;5038300;28;20433;-62
2022/12/27 13:50:46;;;;;;;7.88;4.00;;;6.80;99.90;;;;;;5037395;28;20414;-61
2022/12/27 13:53:37;;;;;;;8.93;4.45;;;6.80;99.90;;;;;;5036102;28;20430;-63
2022/12/27 13:56:13;;;;;;;7.38;4.70;;;6.80;99.90;;;;;;5037007;28;20426;-63
2022/12/27 13:59:06;;;;;;;5.93;4.30;;;6.70;99.90;;;;;;5035112;28;20427;-62
2022/12/27 14:01:48;;;;;;;7.17;4.00;;;6.60;99.90;;;;;;5035942;28;20476;-63
2022/12/27 14:04:47;;;;;;;5.80;3.97;;;6.60;99.90;;;;;;5035321;28;20411;-62
2022/12/27 14:07:35;;;;;;;6.60;3.88;;;6.50;99.90;;;;;;5031433;28;20426;-62
2022/12/27 14:10:16;;;;;;;7.97;4.70;;;6.40;99.90;;;;;;5034736;28;20423;-62
2022/12/27 14:12:58;;;;;;;8.77;4.20;;;6.40;99.90;;;;;;5034411;28;20430;-61
2022/12/27 14:15:36;;;;;;;7.18;4.40;;;6.30;99.90;;;;;;5034672;28;20415;-63
2022/12/27 14:18:21;;;;;;;8.18;4.60;;;6.30;99.90;;;;;;5034959;28;20422;-62
2022/12/27 14:21:04;;;;;;;9.18;5.03;;;6.20;99.90;;;;;;5034491;28;20906;-62
2022/12/27 14:23:55;;;;;;;6.93;4.80;;;6.20;99.90;;;;;;5034346;28;20411;-62
2022/12/27 14:26:58;;;;;;;7.18;4.63;;;6.10;99.90;;;;;;5034616;28;20411;-63
2022/12/27 14:30:04;;;;;;;7.93;4.93;;;6.10;99.90;;;;;;5034181;28;20435;-63
2022/12/27 14:33:00;;;;;;;10.18;5.05;;;6.00;99.90;;;;;;5034241;28;20476;-62
2022/12/27 14:35:49;;;;;;;7.30;5.50;;;6.00;99.90;;;;;;5034562;28;20422;-63
2022/12/27 14:38:45;;;;;;;7.10;5.20;;;5.90;99.90;;;;;;5034333;28;20419;-63
2022/12/27 14:41:59;;;;;;;9.65;6.50;;;5.90;99.90;;;;;;5033916;28;20422;-62
2022/12/27 14:44:56;;;;;;;10.23;6.17;;;5.90;99.90;;;;;;5034661;28;20414;-62
2022/12/27 14:48:11;;;;;;;9.88;5.80;;;5.90;99.90;;;;;;5035078;28;20422;-63
2022/12/27 14:51:11;;;;;;;8.25;5.70;;;5.80;99.90;;;;;;4953338;29;20432;-63
2022/12/27 14:54:01;;;;;;;9.43;6.75;;;5.80;99.90;;;;;;4952556;28;20441;-63
2022/12/27 14:56:36;;;;;;;8.95;6.30;;;5.70;99.90;;;;;;5021944;28;20892;-61
2022/12/27 14:59:16;;;;;;;8.07;7.15;;;5.70;99.90;;;;;;5033661;28;20429;-61
2022/12/27 15:01:54;;;;;;;10.88;7.22;;;5.60;99.90;;;;;;5035310;28;20423;-62
2022/12/27 15:04:45;;;;;;;9.82;6.90;;;5.60;99.90;;;;;;5033751;28;20429;-63
2022/12/27 15:07:36;;;;;;;8.90;7.00;;;5.60;99.90;;;;;;5033888;28;20915;-62
2022/12/27 15:10:12;;;;;;;9.47;7.63;;;5.50;99.90;;;;;;5030834;28;20491;-62
2022/12/27 15:12:46;;;;;;;9.87;7.90;;;5.50;99.90;;;;;;5033619;28;20438;-62